createdAt,value
2022-12-01T00:00:10.177Z,5.20
2022-12-01T00:02:38.757Z,5.20
2022-12-01T00:05:07.756Z,5.20
2022-12-01T00:07:36.243Z,5.20
2022-12-01T00:10:22.236Z,5.20
2022-12-01T00:12:52.145Z,5.20
2022-12-01T00:15:20.765Z,5.20
2022-12-01T00:17:49.718Z,5.10
2022-12-01T00:20:19.029Z,5.20
2022-12-01T00:22:48.820Z,5.20
2022-12-01T00:25:19.498Z,5.10
2022-12-01T00:27:50.121Z,5.10
2022-12-01T00:30:21.346Z,5.10
2022-12-01T00:32:50.115Z,5.10
2022-12-01T00:35:19.177Z,5.10
2022-12-01T00:37:47.695Z,5.10
2022-12-01T00:40:16.337Z,5.10
2022-12-01T00:42:44.799Z,5.10
2022-12-01T00:45:13.273Z,5.10
2022-12-01T00:47:43.524Z,5.10
2022-12-01T00:50:12.787Z,5.10
2022-12-01T00:52:41.346Z,5.10
2022-12-01T00:55:10.385Z,5.10
2022-12-01T00:57:38.976Z,5.10
2022-12-01T01:00:09.026Z,5.10
2022-12-01T01:02:40.205Z,5.10
2022-12-01T01:05:11.170Z,5.10
2022-12-01T01:07:39.845Z,5.10
2022-12-01T01:10:09.179Z,5.10
2022-12-01T01:12:38.388Z,5.10
2022-12-01T01:15:07.927Z,5.00
2022-12-01T01:17:36.405Z,5.00
2022-12-01T01:20:07.369Z,5.00
2022-12-01T01:22:37.743Z,5.00
2022-12-01T01:25:06.735Z,5.00
2022-12-01T01:27:36.116Z,5.00
2022-12-01T01:30:05.345Z,5.00
2022-12-01T01:32:33.847Z,5.00
2022-12-01T01:35:02.267Z,5.00
2022-12-01T01:37:30.605Z,5.00
2022-12-01T01:40:00.445Z,5.00
2022-12-01T01:42:29.387Z,5.00
2022-12-01T01:44:58.926Z,5.00
2022-12-01T01:47:32.275Z,5.00
2022-12-01T01:50:06.272Z,5.00
2022-12-01T01:52:37.454Z,5.00
2022-12-01T01:55:08.558Z,5.00
2022-12-01T01:57:38.261Z,5.00
2022-12-01T02:00:09.392Z,5.00
2022-12-01T02:02:40.765Z,5.00
2022-12-01T02:05:13.744Z,5.00
2022-12-01T02:07:43.402Z,5.00
2022-12-01T02:10:22.456Z,5.00
2022-12-01T02:13:04.864Z,5.00
2022-12-01T02:15:40.906Z,5.00
2022-12-01T02:18:22.684Z,5.00
2022-12-01T02:21:28.723Z,5.00
2022-12-01T02:24:35.526Z,5.00
2022-12-01T02:27:10.349Z,5.00
2022-12-01T02:30:10.363Z,5.00
2022-12-01T02:32:50.147Z,5.00
2022-12-01T02:35:26.322Z,5.00
2022-12-01T02:38:09.617Z,5.00
2022-12-01T02:40:56.313Z,5.00
2022-12-01T02:44:00.841Z,5.00
2022-12-01T02:47:02.043Z,5.00
2022-12-01T02:49:37.275Z,5.00
2022-12-01T02:52:07.765Z,4.90
2022-12-01T02:54:36.805Z,4.90
2022-12-01T02:57:05.372Z,4.90
2022-12-01T02:59:33.653Z,4.90
2022-12-01T03:02:11.630Z,4.90
2022-12-01T03:05:01.093Z,4.90
2022-12-01T03:07:52.859Z,4.90
2022-12-01T03:10:26.857Z,4.90
2022-12-01T03:13:06.913Z,4.90
2022-12-01T03:15:40.337Z,4.90
2022-12-01T03:18:17.594Z,4.90
2022-12-01T03:20:53.283Z,4.90
2022-12-01T03:23:27.105Z,4.90
2022-12-01T03:25:58.165Z,4.90
2022-12-01T03:28:31.795Z,4.80
2022-12-01T03:31:05.048Z,4.90
2022-12-01T03:33:36.848Z,4.80
2022-12-01T03:36:15.146Z,4.80
2022-12-01T03:38:48.908Z,4.80
2022-12-01T03:41:24.124Z,4.90
2022-12-01T03:43:56.694Z,4.90
2022-12-01T03:46:30.644Z,4.90
2022-12-01T03:48:59.420Z,4.80
2022-12-01T03:51:40.861Z,4.80
2022-12-01T03:54:16.749Z,4.80
2022-12-01T03:56:49.315Z,4.80
2022-12-01T03:59:21.854Z,4.80
2022-12-01T04:01:50.738Z,4.80
2022-12-01T04:04:19.165Z,4.80
2022-12-01T04:06:51.295Z,4.80
2022-12-01T04:09:19.892Z,4.80
2022-12-01T04:12:05.466Z,4.80
2022-12-01T04:14:33.825Z,4.80
2022-12-01T04:17:02.287Z,4.80
2022-12-01T04:19:30.665Z,4.80
2022-12-01T04:22:00.512Z,4.80
2022-12-01T04:24:28.843Z,4.80
2022-12-01T04:26:57.363Z,4.80
2022-12-01T04:29:25.626Z,4.80
2022-12-01T04:31:54.153Z,4.80
2022-12-01T04:34:22.654Z,4.70
2022-12-01T04:36:51.038Z,4.70
2022-12-01T04:39:20.875Z,4.70
2022-12-01T04:41:49.812Z,4.70
2022-12-01T04:44:18.283Z,4.70
2022-12-01T04:46:46.600Z,4.70
2022-12-01T04:49:14.894Z,4.70
2022-12-01T04:51:43.411Z,4.70
2022-12-01T04:54:12.066Z,4.70
2022-12-01T04:56:42.454Z,4.70
2022-12-01T04:59:11.740Z,4.70
2022-12-01T05:01:40.549Z,4.60
2022-12-01T05:04:09.227Z,4.70
2022-12-01T05:06:38.088Z,4.70
2022-12-01T05:09:06.478Z,4.70
2022-12-01T05:11:35.481Z,4.70
2022-12-01T05:14:05.336Z,4.70
2022-12-01T05:16:34.744Z,4.70
2022-12-01T05:19:22.734Z,4.70
2022-12-01T05:21:52.079Z,4.60
2022-12-01T05:24:22.104Z,4.60
2022-12-01T05:26:50.475Z,4.60
2022-12-01T05:29:20.315Z,4.60
2022-12-01T05:31:48.823Z,4.60
2022-12-01T05:34:17.502Z,4.60
2022-12-01T05:36:45.866Z,4.60
2022-12-01T05:39:17.945Z,4.70
2022-12-01T05:41:46.315Z,4.60
2022-12-01T05:44:15.755Z,4.60
2022-12-01T05:46:45.645Z,4.60
2022-12-01T05:49:14.249Z,4.60
2022-12-01T05:51:44.125Z,4.60
2022-12-01T05:54:13.516Z,4.60
2022-12-01T05:56:42.003Z,4.60
2022-12-01T05:59:10.641Z,4.60
2022-12-01T06:01:39.074Z,4.60
2022-12-01T06:04:09.139Z,4.60
2022-12-01T06:06:37.789Z,4.60
2022-12-01T06:09:06.108Z,4.60
2022-12-01T06:11:34.567Z,4.60
2022-12-01T06:14:03.235Z,4.50
2022-12-01T06:16:31.726Z,4.50
2022-12-01T06:19:00.558Z,4.50
2022-12-01T06:21:30.474Z,4.50
2022-12-01T06:23:59.187Z,4.50
2022-12-01T06:26:27.617Z,4.50
2022-12-01T06:28:57.935Z,4.50
2022-12-01T06:31:26.507Z,4.50
2022-12-01T06:33:55.059Z,4.50
2022-12-01T06:36:23.699Z,4.50
2022-12-01T06:38:53.845Z,4.50
2022-12-01T06:41:22.477Z,4.50
2022-12-01T06:43:50.841Z,4.40
2022-12-01T06:46:19.334Z,4.50
2022-12-01T06:48:50.060Z,4.50
2022-12-01T06:51:18.633Z,4.50
2022-12-01T06:53:46.905Z,4.50
2022-12-01T06:56:17.846Z,4.40
2022-12-01T06:58:46.795Z,4.40
2022-12-01T07:01:15.665Z,4.40
2022-12-01T07:03:44.746Z,4.40
2022-12-01T07:06:51.306Z,4.40
2022-12-01T07:09:20.884Z,4.40
2022-12-01T07:11:51.726Z,4.40
2022-12-01T07:14:24.199Z,4.40
2022-12-01T07:16:53.030Z,4.40
2022-12-01T07:19:21.759Z,4.40
2022-12-01T07:21:50.273Z,4.40
2022-12-01T07:24:19.086Z,4.40
2022-12-01T07:26:48.186Z,4.40
2022-12-01T07:29:18.311Z,4.40
2022-12-01T07:31:46.704Z,4.40
2022-12-01T07:34:15.356Z,4.40
2022-12-01T07:36:43.707Z,4.40
2022-12-01T07:39:12.082Z,4.40
2022-12-01T07:41:40.524Z,4.40
2022-12-01T07:44:10.975Z,4.40
2022-12-01T07:46:40.843Z,4.40
2022-12-01T07:49:11.788Z,4.40
2022-12-01T07:51:40.182Z,4.40
2022-12-01T07:54:09.237Z,4.40
2022-12-01T07:56:37.648Z,4.40
2022-12-01T07:59:06.157Z,4.40
2022-12-01T08:01:34.691Z,4.40
2022-12-01T08:04:04.577Z,4.50
2022-12-01T08:06:32.953Z,4.50
2022-12-01T08:09:04.606Z,4.50
2022-12-01T08:11:33.015Z,4.50
2022-12-01T08:14:01.504Z,4.40
2022-12-01T08:16:31.017Z,4.50
2022-12-01T08:18:59.863Z,4.50
2022-12-01T08:21:29.615Z,4.50
2022-12-01T08:23:59.117Z,4.50
2022-12-01T08:26:28.543Z,4.50
2022-12-01T08:28:57.996Z,4.50
2022-12-01T08:31:28.241Z,4.60
2022-12-01T08:33:57.130Z,4.60
2022-12-01T08:36:26.113Z,4.60
2022-12-01T08:38:56.869Z,4.60
2022-12-01T08:41:26.011Z,4.60
2022-12-01T08:43:59.052Z,4.60
2022-12-01T08:46:29.182Z,4.60
2022-12-01T08:48:58.196Z,4.60
2022-12-01T08:51:28.027Z,4.70
2022-12-01T08:53:59.450Z,4.60
2022-12-01T08:56:30.056Z,4.60
2022-12-01T08:58:59.115Z,4.70
2022-12-01T09:01:28.115Z,4.70
2022-12-01T09:04:08.924Z,4.70
2022-12-01T09:06:41.454Z,4.70
2022-12-01T09:09:14.167Z,4.70
2022-12-01T09:11:43.933Z,4.70
2022-12-01T09:14:13.046Z,4.80
2022-12-01T09:16:42.551Z,4.80
2022-12-01T09:19:13.229Z,4.80
2022-12-01T09:21:45.335Z,4.80
2022-12-01T09:24:17.404Z,4.90
2022-12-01T09:26:45.851Z,4.90
2022-12-01T09:29:16.650Z,4.90
2022-12-01T09:31:45.528Z,4.80
2022-12-01T09:34:16.264Z,4.90
2022-12-01T09:36:45.689Z,4.90
2022-12-01T09:39:17.448Z,4.90
2022-12-01T09:41:48.334Z,4.90
2022-12-01T09:44:23.631Z,4.90
2022-12-01T09:46:57.183Z,5.00
2022-12-01T09:49:30.419Z,5.00
2022-12-01T09:52:01.835Z,5.00
2022-12-01T09:54:31.714Z,5.00
2022-12-01T09:57:00.405Z,5.00
2022-12-01T09:59:34.346Z,5.10
2022-12-01T10:02:05.714Z,5.10
2022-12-01T10:04:39.444Z,5.10
2022-12-01T10:07:22.982Z,5.10
2022-12-01T10:09:57.304Z,5.20
2022-12-01T10:12:28.931Z,5.20
2022-12-01T10:15:07.066Z,5.30
2022-12-01T10:17:45.335Z,5.40
2022-12-01T10:20:20.246Z,5.40
2022-12-01T10:23:06.645Z,5.40
2022-12-01T10:25:44.927Z,5.40
2022-12-01T10:28:38.513Z,5.40
2022-12-01T10:31:17.217Z,5.50
2022-12-01T10:33:58.220Z,5.50
2022-12-01T10:36:27.575Z,5.40
2022-12-01T10:38:56.303Z,5.50
2022-12-01T10:41:28.876Z,5.50
2022-12-01T10:44:01.124Z,5.60
2022-12-01T10:46:35.009Z,5.70
2022-12-01T10:49:11.985Z,5.70
2022-12-01T10:51:55.017Z,5.70
2022-12-01T10:54:25.557Z,5.60
2022-12-01T10:56:58.416Z,5.60
2022-12-01T10:59:34.617Z,5.60
2022-12-01T11:02:04.576Z,5.60
2022-12-01T11:04:42.676Z,5.60
2022-12-01T11:07:18.345Z,5.60
2022-12-01T11:09:49.594Z,5.70
2022-12-01T11:12:20.643Z,5.70
2022-12-01T11:14:51.567Z,5.70
2022-12-01T11:17:32.946Z,5.70
2022-12-01T11:20:29.837Z,5.60
2022-12-01T11:23:28.289Z,5.60
2022-12-01T11:26:13.524Z,5.60
2022-12-01T11:28:53.385Z,5.60
2022-12-01T11:31:25.740Z,5.60
2022-12-01T11:33:56.261Z,5.50
2022-12-01T11:36:29.707Z,5.50
2022-12-01T11:39:03.904Z,5.40
2022-12-01T11:41:40.425Z,5.40
2022-12-01T11:44:49.751Z,5.30
2022-12-01T11:47:23.165Z,5.30
2022-12-01T11:49:55.243Z,5.30
2022-12-01T11:52:30.230Z,5.20
2022-12-01T11:55:06.945Z,5.20
2022-12-01T11:57:41.054Z,5.20
2022-12-01T12:00:19.834Z,5.20
2022-12-01T12:03:02.725Z,5.20
2022-12-01T12:05:49.142Z,5.30
2022-12-01T12:08:30.359Z,5.30
2022-12-01T12:11:09.952Z,5.30
2022-12-01T12:14:07.915Z,5.30
2022-12-01T12:16:50.585Z,5.40
2022-12-01T12:20:00.136Z,5.50
2022-12-01T12:22:40.529Z,5.50
2022-12-01T12:25:26.047Z,5.60
2022-12-01T12:28:07.513Z,5.50
2022-12-01T12:30:45.472Z,5.50
2022-12-01T12:33:38.515Z,5.50
2022-12-01T12:36:17.768Z,5.40
2022-12-01T12:38:57.296Z,5.40
2022-12-01T12:41:36.055Z,5.40
2022-12-01T12:44:33.747Z,5.30
2022-12-01T12:47:17.724Z,5.30
2022-12-01T12:49:55.326Z,5.30
2022-12-01T12:52:27.773Z,5.30
2022-12-01T12:55:00.386Z,5.20
2022-12-01T12:57:32.854Z,5.20
2022-12-01T13:00:07.643Z,5.20
2022-12-01T13:02:42.546Z,5.10
2022-12-01T13:05:21.282Z,5.10
2022-12-01T13:07:56.333Z,5.10
2022-12-01T13:10:31.098Z,5.10
2022-12-01T13:13:06.646Z,5.00
2022-12-01T13:15:38.051Z,5.00
2022-12-01T13:18:16.959Z,5.00
2022-12-01T13:20:48.619Z,5.00
2022-12-01T13:23:21.364Z,5.00
2022-12-01T13:25:54.356Z,5.00
2022-12-01T13:28:28.527Z,5.00
2022-12-01T13:31:02.904Z,5.00
2022-12-01T13:33:32.420Z,5.00
2022-12-01T13:36:38.225Z,5.00
2022-12-01T13:38:58.989Z,5.00
2022-12-01T13:41:31.240Z,4.90
2022-12-01T13:44:04.285Z,4.90
2022-12-01T13:46:51.223Z,4.90
2022-12-01T13:49:40.870Z,4.90
2022-12-01T13:52:33.246Z,4.90
2022-12-01T13:55:21.704Z,4.90
2022-12-01T13:58:13.706Z,4.90
2022-12-01T14:00:43.182Z,4.90
2022-12-01T14:03:41.111Z,4.90
2022-12-01T14:06:22.062Z,4.90
2022-12-01T14:08:56.875Z,4.90
2022-12-01T14:11:26.816Z,4.80
2022-12-01T14:13:58.196Z,4.70
2022-12-01T14:16:26.982Z,4.60
2022-12-01T14:18:58.031Z,4.60
2022-12-01T14:21:45.164Z,4.60
2022-12-01T14:24:24.728Z,4.60
2022-12-01T14:26:53.866Z,4.50
2022-12-01T14:29:32.152Z,4.50
2022-12-01T14:32:21.923Z,4.50
2022-12-01T14:34:56.807Z,4.50
2022-12-01T14:37:31.115Z,4.50
2022-12-01T14:40:07.785Z,4.50
2022-12-01T14:42:56.957Z,4.50
2022-12-01T14:45:31.498Z,4.50
2022-12-01T14:48:04.035Z,4.40
2022-12-01T14:50:43.510Z,4.40
2022-12-01T14:53:22.580Z,4.40
2022-12-01T14:55:56.451Z,4.40
2022-12-01T14:58:28.048Z,4.30
2022-12-01T15:01:08.835Z,4.30
2022-12-01T15:03:41.447Z,4.30
2022-12-01T15:06:10.565Z,4.30
2022-12-01T15:08:43.579Z,4.20
2022-12-01T15:11:25.518Z,4.30
2022-12-01T15:13:55.700Z,4.20
2022-12-01T15:16:26.071Z,4.20
2022-12-01T15:18:55.053Z,4.20
2022-12-01T15:21:25.966Z,4.20
2022-12-01T15:23:56.359Z,4.10
2022-12-01T15:26:29.266Z,4.10
2022-12-01T15:29:15.908Z,4.10
2022-12-01T15:31:46.574Z,4.10
2022-12-01T15:34:18.387Z,4.10
2022-12-01T15:36:48.340Z,4.10
2022-12-01T15:39:19.507Z,4.00
2022-12-01T15:41:54.161Z,4.00
2022-12-01T15:44:28.367Z,4.00
2022-12-01T15:46:57.507Z,4.00
2022-12-01T15:49:33.120Z,3.90
2022-12-01T15:52:09.469Z,3.90
2022-12-01T15:54:39.000Z,3.90
2022-12-01T15:57:09.151Z,3.90
2022-12-01T15:59:40.602Z,3.80
2022-12-01T16:02:28.229Z,3.80
2022-12-01T16:05:16.695Z,3.80
2022-12-01T16:10:37.088Z,3.70
2022-12-01T16:13:42.457Z,3.70
2022-12-01T16:16:43.925Z,3.70
2022-12-01T16:19:30.124Z,3.70
2022-12-01T16:22:03.122Z,3.70
2022-12-01T16:24:33.976Z,3.70
2022-12-01T16:27:05.427Z,3.70
2022-12-01T16:29:44.459Z,3.70
2022-12-01T16:32:21.282Z,3.60
2022-12-01T16:34:51.967Z,3.60
2022-12-01T16:37:21.735Z,3.60
2022-12-01T16:39:51.019Z,3.60
2022-12-01T16:42:22.308Z,3.60
2022-12-01T16:44:52.852Z,3.60
2022-12-01T16:47:25.160Z,3.60
2022-12-01T16:49:54.099Z,3.50
2022-12-01T16:55:33.195Z,3.50
2022-12-01T16:58:01.873Z,3.40
2022-12-01T17:00:31.029Z,3.40
2022-12-01T17:03:01.537Z,3.40
2022-12-01T17:05:31.693Z,3.40
2022-12-01T17:08:00.480Z,3.30
2022-12-01T17:10:29.630Z,3.30
2022-12-01T17:12:59.054Z,3.30
2022-12-01T17:15:27.822Z,3.30
2022-12-01T17:17:56.937Z,3.30
2022-12-01T17:20:26.876Z,3.30
2022-12-01T17:22:56.793Z,3.20
2022-12-01T17:25:25.417Z,3.20
2022-12-01T17:27:54.694Z,3.20
2022-12-01T17:30:23.859Z,3.20
2022-12-01T17:32:53.127Z,3.20
2022-12-01T17:35:22.545Z,3.20
2022-12-01T17:37:52.392Z,3.10
2022-12-01T17:40:21.440Z,3.10
2022-12-01T17:42:51.117Z,3.10
2022-12-01T17:45:20.450Z,3.10
2022-12-01T17:47:49.762Z,3.10
2022-12-01T17:50:18.577Z,3.10
2022-12-01T17:52:47.319Z,3.10
2022-12-01T17:55:17.253Z,3.10
2022-12-01T17:57:46.268Z,3.10
2022-12-01T18:00:16.227Z,3.10
2022-12-01T18:02:44.687Z,3.10
2022-12-01T18:05:13.280Z,3.00
2022-12-01T18:07:42.468Z,3.00
2022-12-01T18:10:12.887Z,3.00
2022-12-01T18:12:42.643Z,3.00
2022-12-01T18:15:12.578Z,3.00
2022-12-01T18:17:41.427Z,3.00
2022-12-01T18:20:11.286Z,3.00
2022-12-01T18:22:39.915Z,3.00
2022-12-01T18:25:08.999Z,3.00
2022-12-01T18:27:38.352Z,3.00
2022-12-01T18:30:09.868Z,3.00
2022-12-01T18:32:38.304Z,3.00
2022-12-01T18:35:08.205Z,2.90
2022-12-01T18:37:38.148Z,2.90
2022-12-01T18:40:07.909Z,2.90
2022-12-01T18:42:36.715Z,2.90
2022-12-01T18:45:05.902Z,2.90
2022-12-01T18:47:36.013Z,2.90
2022-12-01T18:50:04.776Z,2.90
2022-12-01T18:52:36.503Z,2.90
2022-12-01T18:55:05.292Z,2.80
2022-12-01T18:57:35.588Z,2.90
2022-12-01T19:00:06.179Z,2.80
2022-12-01T19:02:36.113Z,2.80
2022-12-01T19:05:04.696Z,2.80
2022-12-01T19:07:33.734Z,2.80
2022-12-01T19:10:02.406Z,2.80
2022-12-01T19:12:33.218Z,2.80
2022-12-01T19:15:05.854Z,2.80
2022-12-01T19:17:36.146Z,2.80
2022-12-01T19:20:05.891Z,2.80
2022-12-01T19:22:34.953Z,2.80
2022-12-01T19:25:05.108Z,2.80
2022-12-01T19:27:34.807Z,2.80
2022-12-01T19:30:04.386Z,2.80
2022-12-01T19:32:38.229Z,2.70
2022-12-01T19:35:07.438Z,2.80
2022-12-01T19:37:36.155Z,2.70
2022-12-01T19:40:06.118Z,2.70
2022-12-01T19:42:34.983Z,2.70
2022-12-01T19:45:04.224Z,2.70
2022-12-01T19:47:33.351Z,2.70
2022-12-01T19:50:03.466Z,2.70
2022-12-01T19:52:32.027Z,2.70
2022-12-01T19:55:01.534Z,2.70
2022-12-01T19:57:30.158Z,2.80
2022-12-01T20:00:03.108Z,2.70
2022-12-01T20:02:32.544Z,2.80
2022-12-01T20:05:03.639Z,2.80
2022-12-01T20:07:32.905Z,2.80
2022-12-01T20:10:01.507Z,2.80
2022-12-01T20:12:30.224Z,2.80
2022-12-01T20:14:59.124Z,2.80
2022-12-01T20:17:27.713Z,2.80
2022-12-01T20:19:56.655Z,2.70
2022-12-01T20:22:26.782Z,2.70
2022-12-01T20:24:55.765Z,2.80
2022-12-01T20:27:24.670Z,2.80
2022-12-01T20:29:53.283Z,2.80
2022-12-01T20:32:23.828Z,2.70
2022-12-01T20:34:52.966Z,2.70
2022-12-01T20:37:21.672Z,2.80
2022-12-01T20:39:51.681Z,2.70
2022-12-01T20:42:22.363Z,2.70
2022-12-01T20:44:51.281Z,2.80
2022-12-01T20:47:21.775Z,2.70
2022-12-01T20:49:53.043Z,2.80
2022-12-01T20:52:25.609Z,2.70
2022-12-01T20:54:55.577Z,2.70
2022-12-01T20:57:24.165Z,2.70
2022-12-01T20:59:52.892Z,2.70
2022-12-01T21:02:21.477Z,2.70
2022-12-01T21:04:52.253Z,2.70
2022-12-01T21:07:22.582Z,2.70
2022-12-01T21:09:51.922Z,2.70
2022-12-01T21:12:39.262Z,2.70
2022-12-01T21:15:19.124Z,2.70
2022-12-01T21:17:52.709Z,2.70
2022-12-01T21:20:28.572Z,2.70
2022-12-01T21:23:02.404Z,2.70
2022-12-01T21:25:31.114Z,2.70
2022-12-01T21:28:06.663Z,2.70
2022-12-01T21:30:36.307Z,2.70
2022-12-01T21:33:18.789Z,2.70
2022-12-01T21:35:47.405Z,2.70
2022-12-01T21:38:21.643Z,2.70
2022-12-01T21:40:50.636Z,2.70
2022-12-01T21:43:23.114Z,2.70
2022-12-01T21:45:53.920Z,2.70
2022-12-01T21:48:24.225Z,2.70
2022-12-01T21:50:59.350Z,2.70
2022-12-01T21:53:33.456Z,2.70
2022-12-01T21:56:02.083Z,2.70
2022-12-01T21:58:35.269Z,2.60
2022-12-01T22:01:11.484Z,2.60
2022-12-01T22:03:44.831Z,2.60
2022-12-01T22:06:29.623Z,2.60
2022-12-01T22:09:01.695Z,2.60
2022-12-01T22:11:31.476Z,2.60
2022-12-01T22:14:20.062Z,2.60
2022-12-01T22:16:51.165Z,2.60
2022-12-01T22:19:26.920Z,2.60
2022-12-01T22:22:03.046Z,2.60
2022-12-01T22:24:39.484Z,2.60
2022-12-01T22:27:20.085Z,2.60
2022-12-01T22:29:52.836Z,2.60
2022-12-01T22:32:41.414Z,2.60
2022-12-01T22:35:29.123Z,2.60
2022-12-01T22:38:17.961Z,2.60
2022-12-01T22:40:56.377Z,2.60
2022-12-01T22:43:47.269Z,2.60
2022-12-01T22:46:28.524Z,2.60
2022-12-01T22:48:58.606Z,2.60
2022-12-01T22:51:44.195Z,2.60
2022-12-01T22:54:26.955Z,2.60
2022-12-01T22:57:05.055Z,2.60
2022-12-01T22:59:36.273Z,2.60
2022-12-01T23:02:20.745Z,2.60
2022-12-01T23:04:51.907Z,2.60
2022-12-01T23:07:41.530Z,2.60
2022-12-01T23:10:15.776Z,2.60
2022-12-01T23:12:45.045Z,2.60
2022-12-01T23:15:22.902Z,2.60
2022-12-01T23:17:53.265Z,2.60
2022-12-01T23:20:34.034Z,2.60
2022-12-01T23:23:04.223Z,2.60
2022-12-01T23:25:35.288Z,2.60
2022-12-01T23:28:07.614Z,2.60
2022-12-01T23:30:37.298Z,2.60
2022-12-01T23:33:16.143Z,2.60
2022-12-01T23:35:48.814Z,2.60
2022-12-01T23:38:20.444Z,2.60
2022-12-01T23:40:50.647Z,2.60
2022-12-01T23:43:22.403Z,2.60
2022-12-01T23:45:57.307Z,2.70
2022-12-01T23:48:33.024Z,2.60
2022-12-01T23:51:01.943Z,2.60
2022-12-01T23:53:32.115Z,2.60
2022-12-01T23:56:05.274Z,2.60
2022-12-01T23:58:34.944Z,2.60
